createdAt,value
2023-01-08T00:00:01.113Z,0.00
2023-01-08T00:10:01.324Z,0.00
2023-01-08T00:30:01.025Z,0.00
2023-01-08T00:40:01.182Z,0.00
2023-01-08T00:50:01.425Z,0.00
2023-01-08T01:00:01.628Z,0.00
2023-01-08T01:10:01.504Z,0.00
2023-01-08T01:20:01.119Z,0.00
2023-01-08T01:30:01.145Z,0.00
2023-01-08T01:40:01.127Z,0.00
2023-01-08T01:50:01.137Z,0.00
2023-01-08T02:00:01.147Z,0.00
2023-01-08T02:10:01.135Z,0.00
2023-01-08T02:20:00.311Z,0.00
2023-01-08T02:30:01.075Z,0.00
2023-01-08T02:40:01.614Z,0.00
2023-01-08T02:50:01.225Z,0.00
2023-01-08T03:10:01.224Z,0.00
2023-01-08T03:20:01.268Z,0.00
2023-01-08T03:30:01.290Z,0.00
2023-01-08T03:50:01.041Z,0.00
2023-01-08T04:00:01.614Z,0.00
2023-01-08T04:10:01.886Z,0.00
2023-01-08T04:20:01.157Z,0.00
2023-01-08T04:30:02.506Z,0.00
2023-01-08T04:50:01.775Z,0.00
2023-01-08T05:00:01.410Z,0.00
2023-01-08T05:10:01.861Z,0.00
2023-01-08T05:30:00.998Z,0.00
2023-01-08T05:50:00.950Z,0.00
2023-01-08T06:10:00.983Z,0.00
2023-01-08T06:30:02.777Z,0.00
2023-01-08T06:40:01.585Z,0.45
2023-01-08T06:50:01.025Z,2.15
2023-01-08T07:00:01.086Z,10.30
2023-01-08T07:10:01.242Z,18.33
2023-01-08T07:20:01.437Z,35.00
2023-01-08T07:30:01.468Z,119.58
2023-01-08T07:40:02.259Z,213.33
2023-01-08T07:50:01.475Z,328.33
2023-01-08T08:00:01.079Z,220.00
2023-01-08T08:10:01.884Z,588.33
2023-01-08T08:20:01.093Z,385.83
2023-01-08T08:30:02.222Z,261.67
2023-01-08T08:40:01.208Z,288.33
2023-01-08T08:50:01.231Z,746.67
2023-01-08T09:00:01.449Z,439.58
2023-01-08T09:10:02.275Z,410.00
2023-01-08T09:30:01.114Z,461.67
2023-01-08T09:40:02.866Z,1230.00
2023-01-08T09:50:01.007Z,523.33
2023-01-08T10:10:01.078Z,963.75
2023-01-08T10:20:01.085Z,436.67
2023-01-08T10:30:01.086Z,413.33
2023-01-08T10:40:01.067Z,633.33
2023-01-08T10:50:01.044Z,685.00
2023-01-08T11:00:01.365Z,656.67
2023-01-08T11:10:01.054Z,1531.25
2023-01-08T11:20:01.250Z,1751.67
2023-01-08T11:30:01.285Z,1185.00
2023-01-08T11:40:00.211Z,730.00
2023-01-08T11:50:02.941Z,1035.00
2023-01-08T12:00:02.977Z,1348.33
2023-01-08T12:10:01.255Z,1158.33
2023-01-08T12:20:01.889Z,1536.67
2023-01-08T12:30:01.211Z,1596.67
2023-01-08T12:40:01.071Z,1616.25
2023-01-08T12:50:00.179Z,1713.33
2023-01-08T13:00:01.252Z,678.33
2023-01-08T13:10:01.472Z,475.00
2023-01-08T13:20:02.542Z,754.17
2023-01-08T13:30:01.303Z,258.33
2023-01-08T13:40:00.206Z,256.67
2023-01-08T13:50:01.100Z,275.00
2023-01-08T14:00:01.242Z,231.67
2023-01-08T14:10:01.125Z,427.50
2023-01-08T14:20:00.994Z,325.42
2023-01-08T14:30:00.985Z,126.67
2023-01-08T14:40:01.250Z,75.00
2023-01-08T14:50:01.040Z,112.50
2023-01-08T15:00:02.671Z,61.67
2023-01-08T15:10:02.612Z,11.67
2023-01-08T15:20:02.164Z,5.00
2023-01-08T15:30:01.490Z,8.15
2023-01-08T15:40:01.008Z,2.38
2023-01-08T15:50:05.168Z,0.45
2023-01-08T16:00:02.876Z,0.11
2023-01-08T16:10:01.079Z,0.00
2023-01-08T16:20:00.215Z,0.00
2023-01-08T16:30:02.976Z,0.00
2023-01-08T16:40:01.204Z,0.00
2023-01-08T16:50:01.090Z,0.00
2023-01-08T17:00:01.071Z,0.00
2023-01-08T17:10:02.221Z,0.00
2023-01-08T17:20:01.335Z,0.00
2023-01-08T17:30:01.525Z,0.00
2023-01-08T17:40:01.457Z,0.00
2023-01-08T17:50:01.576Z,0.00
2023-01-08T18:10:01.209Z,0.00
2023-01-08T18:20:01.106Z,0.00
2023-01-08T18:30:01.003Z,0.00
2023-01-08T18:40:00.243Z,0.00
2023-01-08T18:50:01.042Z,0.00
2023-01-08T19:00:02.270Z,0.00
2023-01-08T19:10:01.011Z,0.00
2023-01-08T19:20:01.908Z,0.00
2023-01-08T19:30:01.294Z,0.00
2023-01-08T19:40:01.310Z,0.00
2023-01-08T19:50:01.123Z,0.00
2023-01-08T20:00:01.413Z,0.00
2023-01-08T20:10:02.383Z,0.00
2023-01-08T20:20:01.125Z,0.00
2023-01-08T20:30:01.061Z,0.00
2023-01-08T20:40:01.362Z,0.00
2023-01-08T20:50:03.239Z,0.00
2023-01-08T21:00:01.770Z,0.00
2023-01-08T21:10:01.075Z,0.00
2023-01-08T21:20:01.337Z,0.00
2023-01-08T21:30:01.006Z,0.00
2023-01-08T21:40:02.452Z,0.00
2023-01-08T21:50:01.304Z,0.00
2023-01-08T22:00:02.190Z,0.00
2023-01-08T22:10:00.978Z,0.00
2023-01-08T22:30:02.243Z,0.00
2023-01-08T22:40:01.313Z,0.00
2023-01-08T22:50:01.179Z,0.00
2023-01-08T23:00:01.302Z,0.00
2023-01-08T23:10:01.419Z,0.00
2023-01-08T23:20:02.387Z,0.00
2023-01-08T23:30:01.521Z,0.00
2023-01-08T23:40:01.012Z,0.00
2023-01-08T23:50:01.212Z,0.00
